Terminal Aerodrome Forecast
Issued by NWS Boston, MA

Home | Current Version | Previous Version | Text Only | Print | Product List | Glossary On
Versions: 1 2 3 4 5 6 7 8 9 10 11 12 13 14 15 16 17 18 19 20
000
FTUS41 KBOX 241732
TAFBDL
TAF
KBDL 241732Z 2418/2524 33010G18KT P6SM BKN030
     FM242200 32008KT P6SM BKN035
     FM250500 32004KT P6SM SCT060
     FM251900 26007KT P6SM SCT200
     FM252300 22005KT P6SM BKN090=

USA.gov is the U.S. government's official web portal to all federal, state and local government web resources and services.